San Diego, California
Traffic Map
Current Weather Conditions
San Diego, California
Overcast
Overcast
71°
Feels Like: 71°
Wind Chill: 71° Ceiling: 2400
Heat Index: 71° Visibility: 10mi
Dew Point: 61° Wind: 5mph
Humidity: 70% Direction: ° ()
Pressure: 29.96in Gusts: 0mph
Raw Report DataKSAN 201751Z VRB04KT 10SM SCT016 OVC024 22/16 A2996 RMK AO2 SLP146 T02170161 10217 20194 51010
Traffic Incident Summary
Active as of:
Severity:
Category:
InformationThere was an issue retrieving the traffic information for this location. Please try a different location or try again shortly.
Advertisements
Track Severe Weather on mobile